createdAt,value
2023-04-08T00:00:18.851Z,1018.597
2023-04-08T00:00:48.817Z,1018.588
2023-04-08T00:01:18.827Z,1018.6
2023-04-08T00:01:48.824Z,1018.6
2023-04-08T00:02:18.935Z,1018.601
2023-04-08T00:02:48.889Z,1018.598
2023-04-08T00:03:19.079Z,1018.615
2023-04-08T00:03:48.990Z,1018.622
2023-04-08T00:04:18.863Z,1018.629
2023-04-08T00:04:48.840Z,1018.629
2023-04-08T00:05:18.829Z,1018.639
2023-04-08T00:05:48.819Z,1018.649
2023-04-08T00:06:18.818Z,1018.645
2023-04-08T00:06:48.823Z,1018.65
2023-04-08T00:07:18.852Z,1018.649
2023-04-08T00:07:48.824Z,1018.646
2023-04-08T00:08:18.821Z,1018.644
2023-04-08T00:08:49.088Z,1018.649
2023-04-08T00:09:18.819Z,1018.648
2023-04-08T00:09:48.818Z,1018.641
2023-04-08T00:10:18.818Z,1018.646
2023-04-08T00:10:48.818Z,1018.648
2023-04-08T00:11:18.830Z,1018.644
2023-04-08T00:11:48.830Z,1018.643
2023-04-08T00:12:18.819Z,1018.638
2023-04-08T00:12:48.826Z,1018.62
2023-04-08T00:13:18.817Z,1018.62
2023-04-08T00:13:48.821Z,1018.626
2023-04-08T00:14:18.820Z,1018.635
2023-04-08T00:14:48.819Z,1018.647
2023-04-08T00:15:18.819Z,1018.654
2023-04-08T00:15:48.819Z,1018.661
2023-04-08T00:16:18.843Z,1018.65
2023-04-08T00:16:48.869Z,1018.654
2023-04-08T00:17:18.836Z,1018.658
2023-04-08T00:17:48.865Z,1018.65
2023-04-08T00:18:18.841Z,1018.649
2023-04-08T00:18:48.971Z,1018.642
2023-04-08T00:19:18.817Z,1018.633
2023-04-08T00:19:48.817Z,1018.623
2023-04-08T00:20:18.820Z,1018.619
2023-04-08T00:20:48.820Z,1018.628
2023-04-08T00:21:18.820Z,1018.619
2023-04-08T00:21:48.820Z,1018.617
2023-04-08T00:22:18.832Z,1018.614
2023-04-08T00:22:48.836Z,1018.62
2023-04-08T00:23:18.821Z,1018.626
2023-04-08T00:23:48.820Z,1018.63
2023-04-08T00:24:18.816Z,1018.629
2023-04-08T00:24:48.826Z,1018.631
2023-04-08T00:25:18.843Z,1018.635
2023-04-08T00:25:48.828Z,1018.642
2023-04-08T00:26:18.825Z,1018.644
2023-04-08T00:26:48.827Z,1018.644
2023-04-08T00:27:18.820Z,1018.636
2023-04-08T00:27:48.820Z,1018.64
2023-04-08T00:28:18.826Z,1018.648
2023-04-08T00:28:49.038Z,1018.651
2023-04-08T00:29:18.820Z,1018.657
2023-04-08T00:29:48.825Z,1018.655
2023-04-08T00:30:18.828Z,1018.662
2023-04-08T00:30:48.853Z,1018.66
2023-04-08T00:31:18.868Z,1018.662
2023-04-08T00:31:48.828Z,1018.663
2023-04-08T00:32:18.826Z,1018.65
2023-04-08T00:32:48.880Z,1018.663
2023-04-08T00:33:18.826Z,1018.664
2023-04-08T00:33:48.824Z,1018.661
2023-04-08T00:34:18.834Z,1018.663
2023-04-08T00:34:48.822Z,1018.663
2023-04-08T00:35:18.841Z,1018.666
2023-04-08T00:35:48.825Z,1018.666
2023-04-08T00:36:18.822Z,1018.663
2023-04-08T00:36:48.830Z,1018.664
2023-04-08T00:37:18.819Z,1018.667
2023-04-08T00:37:48.821Z,1018.67
2023-04-08T00:38:18.818Z,1018.678
2023-04-08T00:38:49.141Z,1018.682
2023-04-08T00:39:18.826Z,1018.685
2023-04-08T00:39:48.821Z,1018.689
2023-04-08T00:40:18.834Z,1018.699
2023-04-08T00:40:48.824Z,1018.712
2023-04-08T00:41:18.825Z,1018.713
2023-04-08T00:41:48.860Z,1018.72
2023-04-08T00:42:18.822Z,1018.727
2023-04-08T00:42:48.836Z,1018.733
2023-04-08T00:43:18.820Z,1018.739
2023-04-08T00:43:48.828Z,1018.742
2023-04-08T00:44:18.832Z,1018.745
2023-04-08T00:44:48.825Z,1018.749
2023-04-08T00:45:18.821Z,1018.758
2023-04-08T00:45:48.894Z,1018.761
2023-04-08T00:46:18.875Z,1018.75
2023-04-08T00:46:48.829Z,1018.749
2023-04-08T00:47:18.851Z,1018.754
2023-04-08T00:47:48.871Z,1018.752
2023-04-08T00:48:18.850Z,1018.742
2023-04-08T00:49:18.835Z,1018.737
2023-04-08T00:49:48.838Z,1018.746
2023-04-08T00:50:18.822Z,1018.753
2023-04-08T00:50:48.820Z,1018.752
2023-04-08T00:51:18.831Z,1018.75
2023-04-08T00:51:48.826Z,1018.745
2023-04-08T00:52:18.852Z,1018.743
2023-04-08T00:52:48.824Z,1018.752
2023-04-08T00:53:18.823Z,1018.755
2023-04-08T00:53:48.825Z,1018.747
2023-04-08T00:54:18.826Z,1018.752
2023-04-08T00:54:48.831Z,1018.755
2023-04-08T00:55:18.828Z,1018.765
2023-04-08T00:55:48.848Z,1018.773
2023-04-08T00:56:18.837Z,1018.776
2023-04-08T00:56:48.829Z,1018.776
2023-04-08T00:57:18.824Z,1018.771
2023-04-08T00:57:48.829Z,1018.783
2023-04-08T00:58:18.857Z,1018.775
2023-04-08T00:58:49.101Z,1018.783
2023-04-08T00:59:18.832Z,1018.795
2023-04-08T00:59:48.829Z,1018.802
2023-04-08T01:00:18.830Z,1018.801
2023-04-08T01:00:48.825Z,1018.8
2023-04-08T01:01:18.855Z,1018.811
2023-04-08T01:01:48.950Z,1018.816
2023-04-08T01:02:18.999Z,1018.819
2023-04-08T01:02:49.023Z,1018.818
2023-04-08T01:03:18.977Z,1018.824
2023-04-08T01:03:48.899Z,1018.835
2023-04-08T01:04:18.945Z,1018.836
2023-04-08T01:04:48.832Z,1018.834
2023-04-08T01:05:18.821Z,1018.83
2023-04-08T01:05:48.824Z,1018.836
2023-04-08T01:06:18.826Z,1018.843
2023-04-08T01:06:48.824Z,1018.85
2023-04-08T01:07:18.828Z,1018.848
2023-04-08T01:07:48.822Z,1018.848
2023-04-08T01:08:18.827Z,1018.845
2023-04-08T01:08:49.098Z,1018.843
2023-04-08T01:09:18.836Z,1018.842
2023-04-08T01:09:48.825Z,1018.839
2023-04-08T01:10:18.833Z,1018.846
2023-04-08T01:10:48.836Z,1018.852
2023-04-08T01:11:18.823Z,1018.855
2023-04-08T01:11:48.824Z,1018.859
2023-04-08T01:12:18.825Z,1018.853
2023-04-08T01:12:48.855Z,1018.852
2023-04-08T01:13:18.824Z,1018.853
2023-04-08T01:13:48.838Z,1018.852
2023-04-08T01:14:18.829Z,1018.849
2023-04-08T01:14:48.832Z,1018.847
2023-04-08T01:15:18.828Z,1018.85
2023-04-08T01:15:48.868Z,1018.855
2023-04-08T01:16:18.847Z,1018.859
2023-04-08T01:16:48.829Z,1018.862
2023-04-08T01:17:18.827Z,1018.862
2023-04-08T01:17:48.881Z,1018.865
2023-04-08T01:18:18.827Z,1018.877
2023-04-08T01:18:49.067Z,1018.879
2023-04-08T01:19:18.832Z,1018.877
2023-04-08T01:19:48.827Z,1018.88
2023-04-08T01:20:18.831Z,1018.873
2023-04-08T01:20:48.837Z,1018.872
2023-04-08T01:21:18.834Z,1018.865
2023-04-08T01:21:48.826Z,1018.87
2023-04-08T01:22:18.826Z,1018.876
2023-04-08T01:22:48.831Z,1018.888
2023-04-08T01:23:18.834Z,1018.897
2023-04-08T01:23:48.826Z,1018.893
2023-04-08T01:24:18.835Z,1018.896
2023-04-08T01:24:48.833Z,1018.903
2023-04-08T01:25:18.854Z,1018.923
2023-04-08T01:25:48.824Z,1018.93
2023-04-08T01:26:18.825Z,1018.932
2023-04-08T01:26:48.825Z,1018.926
2023-04-08T01:27:18.826Z,1018.932
2023-04-08T01:27:48.826Z,1018.944
2023-04-08T01:28:18.828Z,1018.942
2023-04-08T01:28:48.970Z,1018.94
2023-04-08T01:29:18.825Z,1018.939
2023-04-08T01:29:48.832Z,1018.94
2023-04-08T01:30:18.839Z,1018.938
2023-04-08T01:30:48.870Z,1018.942
2023-04-08T01:31:18.923Z,1018.941
2023-04-08T01:31:48.828Z,1018.942
2023-04-08T01:32:18.826Z,1018.94
2023-04-08T01:32:48.881Z,1018.941
2023-04-08T01:33:18.829Z,1018.948
2023-04-08T01:33:48.828Z,1018.956
2023-04-08T01:34:18.847Z,1018.956
2023-04-08T01:34:48.838Z,1018.957
2023-04-08T01:35:18.934Z,1018.957
2023-04-08T01:35:48.852Z,1018.961
2023-04-08T01:36:18.829Z,1018.961
2023-04-08T01:36:48.847Z,1018.96
2023-04-08T01:37:18.828Z,1018.968
2023-04-08T01:37:48.837Z,1018.963
2023-04-08T01:38:18.837Z,1018.974
2023-04-08T01:38:49.032Z,1018.97
2023-04-08T01:39:18.847Z,1018.967
2023-04-08T01:39:48.838Z,1018.97
2023-04-08T01:40:18.836Z,1018.971
2023-04-08T01:40:48.829Z,1018.966
2023-04-08T01:41:18.837Z,1018.972
2023-04-08T01:41:48.830Z,1018.969
2023-04-08T01:42:18.832Z,1018.97
2023-04-08T01:42:48.839Z,1018.961
2023-04-08T01:43:18.830Z,1018.967
2023-04-08T01:43:48.838Z,1018.957
2023-04-08T01:44:18.835Z,1018.961
2023-04-08T01:44:48.834Z,1018.965
2023-04-08T01:45:18.840Z,1018.961
2023-04-08T01:45:48.831Z,1018.956
2023-04-08T01:46:18.870Z,1018.955
2023-04-08T01:46:48.883Z,1018.956
2023-04-08T01:47:18.834Z,1018.955
2023-04-08T01:47:48.870Z,1018.965
2023-04-08T01:48:18.832Z,1018.98
2023-04-08T01:48:49.120Z,1018.993
2023-04-08T01:49:18.835Z,1018.997
2023-04-08T01:49:48.846Z,1019.007
2023-04-08T01:50:18.836Z,1019.009
2023-04-08T01:50:48.831Z,1019.018
2023-04-08T01:51:18.845Z,1019.028
2023-04-08T01:51:48.839Z,1019.027
2023-04-08T01:52:18.843Z,1019.032
2023-04-08T01:52:48.835Z,1019.037
2023-04-08T01:53:18.832Z,1019.047
2023-04-08T01:53:48.837Z,1019.049
2023-04-08T01:54:18.842Z,1019.056
2023-04-08T01:54:48.839Z,1019.068
2023-04-08T01:55:18.834Z,1019.069
2023-04-08T01:55:48.834Z,1019.072
2023-04-08T01:56:18.857Z,1019.073
2023-04-08T01:56:48.838Z,1019.081
2023-04-08T01:57:18.840Z,1019.081
2023-04-08T01:57:48.848Z,1019.089
2023-04-08T01:58:18.838Z,1019.09
2023-04-08T01:58:49.032Z,1019.109
2023-04-08T01:59:18.855Z,1019.105
2023-04-08T01:59:48.840Z,1019.104
2023-04-08T02:00:18.856Z,1019.105
2023-04-08T02:00:48.844Z,1019.116
2023-04-08T02:01:18.867Z,1019.116
2023-04-08T02:01:48.900Z,1019.115
2023-04-08T02:02:18.883Z,1019.11
2023-04-08T02:02:48.956Z,1019.113
2023-04-08T02:03:19.179Z,1019.124
2023-04-08T02:03:49.005Z,1019.135
2023-04-08T02:04:18.916Z,1019.135
2023-04-08T02:04:48.875Z,1019.139
2023-04-08T02:05:18.851Z,1019.142
2023-04-08T02:05:48.843Z,1019.154
2023-04-08T02:06:18.833Z,1019.157
2023-04-08T02:06:48.836Z,1019.159
2023-04-08T02:07:18.839Z,1019.158
2023-04-08T02:07:48.843Z,1019.161
2023-04-08T02:08:18.841Z,1019.164
2023-04-08T02:08:59.163Z,1019.172
2023-04-08T02:09:19.793Z,1019.174
2023-04-08T02:09:48.836Z,1019.177
2023-04-08T02:10:18.840Z,1019.183
2023-04-08T02:10:48.840Z,1019.188
2023-04-08T02:11:18.843Z,1019.194
2023-04-08T02:11:48.842Z,1019.192
2023-04-08T02:12:18.833Z,1019.194
2023-04-08T02:12:48.859Z,1019.201
2023-04-08T02:13:18.836Z,1019.203
2023-04-08T02:13:48.843Z,1019.209
2023-04-08T02:14:18.842Z,1019.205
2023-04-08T02:14:48.837Z,1019.219
2023-04-08T02:15:18.844Z,1019.226
2023-04-08T02:15:48.835Z,1019.222
2023-04-08T02:16:18.906Z,1019.223
2023-04-08T02:16:48.894Z,1019.225
2023-04-08T02:17:18.837Z,1019.219
2023-04-08T02:17:48.868Z,1019.227
2023-04-08T02:18:18.839Z,1019.232
2023-04-08T02:18:49.017Z,1019.234
2023-04-08T02:19:18.840Z,1019.245
2023-04-08T02:19:48.846Z,1019.25
2023-04-08T02:20:18.847Z,1019.253
2023-04-08T02:20:48.854Z,1019.254
2023-04-08T02:21:18.844Z,1019.25
2023-04-08T02:21:48.841Z,1019.251
2023-04-08T02:22:18.840Z,1019.256
2023-04-08T02:22:48.843Z,1019.263
2023-04-08T02:23:18.847Z,1019.256
2023-04-08T02:23:48.845Z,1019.252
2023-04-08T02:24:18.850Z,1019.257
2023-04-08T02:24:48.848Z,1019.254
2023-04-08T02:25:18.838Z,1019.268
2023-04-08T02:25:48.846Z,1019.268
2023-04-08T02:26:18.861Z,1019.261
2023-04-08T02:26:48.838Z,1019.26
2023-04-08T02:27:18.844Z,1019.277
2023-04-08T02:27:48.839Z,1019.286
2023-04-08T02:28:18.846Z,1019.287
2023-04-08T02:28:49.099Z,1019.292
2023-04-08T02:29:18.840Z,1019.305
2023-04-08T02:29:48.842Z,1019.306
2023-04-08T02:30:18.838Z,1019.308
2023-04-08T02:30:48.845Z,1019.318
2023-04-08T02:31:18.890Z,1019.322
2023-04-08T02:31:48.862Z,1019.334
2023-04-08T02:32:18.842Z,1019.337
2023-04-08T02:32:48.907Z,1019.34
2023-04-08T02:33:18.840Z,1019.343
2023-04-08T02:33:48.839Z,1019.348
2023-04-08T02:34:18.841Z,1019.356
2023-04-08T02:34:48.838Z,1019.355
2023-04-08T02:35:18.866Z,1019.356
2023-04-08T02:35:48.887Z,1019.36
2023-04-08T02:36:18.843Z,1019.369
2023-04-08T02:36:48.845Z,1019.376
2023-04-08T02:37:18.852Z,1019.378
2023-04-08T02:37:48.859Z,1019.381
2023-04-08T02:38:18.847Z,1019.391
2023-04-08T02:38:49.179Z,1019.399
2023-04-08T02:39:18.842Z,1019.401
2023-04-08T02:39:48.838Z,1019.397
2023-04-08T02:40:18.839Z,1019.414
2023-04-08T02:40:48.838Z,1019.421
2023-04-08T02:41:18.839Z,1019.423
2023-04-08T02:41:48.844Z,1019.436
2023-04-08T02:42:18.851Z,1019.438
2023-04-08T02:42:48.840Z,1019.442
2023-04-08T02:43:18.910Z,1019.448
2023-04-08T02:43:48.850Z,1019.455
2023-04-08T02:44:18.840Z,1019.459
2023-04-08T02:44:48.842Z,1019.466
2023-04-08T02:45:18.846Z,1019.475
2023-04-08T02:45:48.862Z,1019.481
2023-04-08T02:46:18.894Z,1019.481
2023-04-08T02:46:48.844Z,1019.489
2023-04-08T02:47:18.844Z,1019.499
2023-04-08T02:47:48.868Z,1019.505
2023-04-08T02:48:18.842Z,1019.514
2023-04-08T02:48:49.202Z,1019.512
2023-04-08T02:49:18.836Z,1019.514
2023-04-08T02:49:48.840Z,1019.525
2023-04-08T02:50:18.839Z,1019.53
2023-04-08T02:50:48.844Z,1019.535
2023-04-08T02:51:18.861Z,1019.549
2023-04-08T02:51:48.845Z,1019.553
2023-04-08T02:52:18.848Z,1019.556
2023-04-08T02:52:48.863Z,1019.558
2023-04-08T02:53:18.865Z,1019.57
2023-04-08T02:53:48.858Z,1019.572
2023-04-08T02:54:18.841Z,1019.578
2023-04-08T02:54:48.845Z,1019.57
2023-04-08T02:55:18.836Z,1019.572
2023-04-08T02:55:48.849Z,1019.579
2023-04-08T02:56:18.838Z,1019.585
2023-04-08T02:56:48.858Z,1019.588
2023-04-08T02:57:18.847Z,1019.58
2023-04-08T02:57:48.835Z,1019.578
2023-04-08T02:58:18.840Z,1019.562
2023-04-08T02:58:49.194Z,1019.548
2023-04-08T02:59:18.839Z,1019.546
2023-04-08T02:59:48.839Z,1019.542
2023-04-08T03:00:18.847Z,1019.536
2023-04-08T03:00:48.907Z,1019.536
2023-04-08T03:01:18.872Z,1019.537
2023-04-08T03:01:48.959Z,1019.545
2023-04-08T03:02:18.888Z,1019.529
2023-04-08T03:02:48.989Z,1019.534
2023-04-08T03:03:18.900Z,1019.545
2023-04-08T03:03:49.055Z,1019.549
2023-04-08T03:04:18.849Z,1019.56
2023-04-08T03:04:48.843Z,1019.547
2023-04-08T03:05:18.839Z,1019.553
2023-04-08T03:05:48.842Z,1019.551
2023-04-08T03:06:18.841Z,1019.561
2023-04-08T03:06:48.843Z,1019.569
2023-04-08T03:07:18.863Z,1019.568
2023-04-08T03:07:48.867Z,1019.576
2023-04-08T03:08:18.857Z,1019.573
2023-04-08T03:08:49.038Z,1019.578
2023-04-08T03:09:18.852Z,1019.579
2023-04-08T03:09:48.836Z,1019.58
2023-04-08T03:10:18.838Z,1019.582
2023-04-08T03:10:48.842Z,1019.579
2023-04-08T03:11:18.842Z,1019.58
2023-04-08T03:11:48.840Z,1019.582
2023-04-08T03:12:18.845Z,1019.576
2023-04-08T03:12:48.852Z,1019.575
2023-04-08T03:13:18.843Z,1019.566
2023-04-08T03:13:48.848Z,1019.554
2023-04-08T03:14:18.839Z,1019.546
2023-04-08T03:14:48.836Z,1019.522
2023-04-08T03:15:18.860Z,1019.547
2023-04-08T03:15:48.848Z,1019.559
2023-04-08T03:16:18.870Z,1019.572
2023-04-08T03:16:48.906Z,1019.563
2023-04-08T03:17:18.866Z,1019.565
2023-04-08T03:17:48.906Z,1019.563
2023-04-08T03:18:18.840Z,1019.555
2023-04-08T03:18:48.986Z,1019.552
2023-04-08T03:19:18.840Z,1019.548
2023-04-08T03:19:48.845Z,1019.535
2023-04-08T03:20:18.841Z,1019.527
2023-04-08T03:20:48.840Z,1019.526
2023-04-08T03:21:18.846Z,1019.52
2023-04-08T03:21:48.859Z,1019.522
2023-04-08T03:22:18.852Z,1019.512
2023-04-08T03:22:48.846Z,1019.518
2023-04-08T03:23:18.843Z,1019.521
2023-04-08T03:23:48.873Z,1019.514
2023-04-08T03:24:18.867Z,1019.521
2023-04-08T03:24:48.840Z,1019.521
2023-04-08T03:25:18.848Z,1019.527
2023-04-08T03:25:48.841Z,1019.516
2023-04-08T03:26:18.841Z,1019.509
2023-04-08T03:26:48.851Z,1019.51
2023-04-08T03:27:18.846Z,1019.5
2023-04-08T03:27:48.840Z,1019.508
2023-04-08T03:28:18.842Z,1019.519
2023-04-08T03:28:49.183Z,1019.52
2023-04-08T03:29:18.847Z,1019.524
2023-04-08T03:29:48.849Z,1019.527
2023-04-08T03:30:18.841Z,1019.533
2023-04-08T03:30:48.844Z,1019.537
2023-04-08T03:31:18.862Z,1019.543
2023-04-08T03:31:48.890Z,1019.551
2023-04-08T03:32:18.839Z,1019.552
2023-04-08T03:32:48.874Z,1019.556
2023-04-08T03:33:18.838Z,1019.559
2023-04-08T03:33:48.839Z,1019.557
2023-04-08T03:34:18.853Z,1019.566
2023-04-08T03:34:48.843Z,1019.559
2023-04-08T03:35:18.891Z,1019.556
2023-04-08T03:35:48.904Z,1019.549
2023-04-08T03:36:18.851Z,1019.539
2023-04-08T03:36:48.850Z,1019.548
2023-04-08T03:37:18.889Z,1019.548
2023-04-08T03:37:48.861Z,1019.56
2023-04-08T03:38:18.861Z,1019.557
2023-04-08T03:38:49.171Z,1019.559
2023-04-08T03:39:18.847Z,1019.558
2023-04-08T03:39:48.852Z,1019.558
2023-04-08T03:40:18.856Z,1019.568
2023-04-08T03:40:48.847Z,1019.57
2023-04-08T03:41:18.847Z,1019.573
2023-04-08T03:41:48.842Z,1019.584
2023-04-08T03:42:18.842Z,1019.588
2023-04-08T03:42:48.847Z,1019.584
2023-04-08T03:43:18.850Z,1019.577
2023-04-08T03:43:48.850Z,1019.581
2023-04-08T03:44:18.844Z,1019.588
2023-04-08T03:44:48.845Z,1019.583
2023-04-08T03:45:18.878Z,1019.587
2023-04-08T03:45:48.890Z,1019.586
2023-04-08T03:46:18.915Z,1019.594
2023-04-08T03:46:48.850Z,1019.597
2023-04-08T03:47:18.854Z,1019.594
2023-04-08T03:47:48.859Z,1019.605
2023-04-08T03:48:18.851Z,1019.611
2023-04-08T03:48:49.146Z,1019.609
2023-04-08T03:49:18.844Z,1019.615
2023-04-08T03:49:48.844Z,1019.622
2023-04-08T03:50:18.847Z,1019.625
2023-04-08T03:50:48.850Z,1019.629
2023-04-08T03:51:18.853Z,1019.627
2023-04-08T03:51:48.844Z,1019.619
2023-04-08T03:52:18.850Z,1019.621
2023-04-08T03:52:48.847Z,1019.626
2023-04-08T03:53:18.862Z,1019.636
2023-04-08T03:53:48.844Z,1019.639
2023-04-08T03:54:18.856Z,1019.626
2023-04-08T03:54:48.843Z,1019.621
2023-04-08T03:55:18.848Z,1019.622
2023-04-08T03:55:48.855Z,1019.617
2023-04-08T03:56:18.844Z,1019.615
2023-04-08T03:56:48.850Z,1019.612
2023-04-08T03:57:18.846Z,1019.604
2023-04-08T03:57:48.850Z,1019.59
2023-04-08T03:58:18.848Z,1019.592
2023-04-08T03:58:49.266Z,1019.593
2023-04-08T03:59:18.841Z,1019.603
2023-04-08T03:59:48.843Z,1019.623
2023-04-08T04:00:18.841Z,1019.62
2023-04-08T04:00:48.846Z,1019.615
2023-04-08T04:01:18.848Z,1019.612
2023-04-08T04:01:48.970Z,1019.612
2023-04-08T04:02:18.936Z,1019.608
2023-04-08T04:02:48.907Z,1019.604
2023-04-08T04:03:18.990Z,1019.604
2023-04-08T04:03:48.929Z,1019.617
2023-04-08T04:04:19.044Z,1019.615
2023-04-08T04:04:48.872Z,1019.63
2023-04-08T04:05:18.846Z,1019.625
2023-04-08T04:05:48.847Z,1019.633
2023-04-08T04:06:18.844Z,1019.635
2023-04-08T04:06:48.863Z,1019.638
2023-04-08T04:07:18.847Z,1019.643
2023-04-08T04:07:48.846Z,1019.644
2023-04-08T04:08:18.849Z,1019.639
2023-04-08T04:08:49.122Z,1019.635
2023-04-08T04:09:18.842Z,1019.643
2023-04-08T04:09:48.844Z,1019.648
2023-04-08T04:10:18.841Z,1019.646
2023-04-08T04:10:48.851Z,1019.635
2023-04-08T04:11:18.841Z,1019.628
2023-04-08T04:11:48.868Z,1019.625
2023-04-08T04:12:18.851Z,1019.62
2023-04-08T04:12:48.853Z,1019.605
2023-04-08T04:13:18.844Z,1019.608
2023-04-08T04:13:48.850Z,1019.605
2023-04-08T04:14:18.841Z,1019.615
2023-04-08T04:14:48.845Z,1019.62
2023-04-08T04:15:18.840Z,1019.616
2023-04-08T04:15:48.941Z,1019.601
2023-04-08T04:16:18.897Z,1019.591
2023-04-08T04:16:48.843Z,1019.6
2023-04-08T04:17:18.856Z,1019.599
2023-04-08T04:17:48.939Z,1019.6
2023-04-08T04:18:18.915Z,1019.607
2023-04-08T04:18:49.243Z,1019.609
2023-04-08T04:19:18.857Z,1019.621
2023-04-08T04:19:48.845Z,1019.616
2023-04-08T04:20:18.845Z,1019.616
2023-04-08T04:20:48.857Z,1019.605
2023-04-08T04:21:18.846Z,1019.586
2023-04-08T04:21:48.857Z,1019.566
2023-04-08T04:22:18.844Z,1019.56
2023-04-08T04:22:48.862Z,1019.535
2023-04-08T04:23:18.846Z,1019.512
2023-04-08T04:23:48.854Z,1019.482
2023-04-08T04:24:18.847Z,1019.467
2023-04-08T04:24:48.849Z,1019.458
2023-04-08T04:25:18.844Z,1019.45
2023-04-08T04:25:48.844Z,1019.462
2023-04-08T04:26:18.851Z,1019.478
2023-04-08T04:26:48.846Z,1019.497
2023-04-08T04:27:18.865Z,1019.503
2023-04-08T04:27:48.849Z,1019.513
2023-04-08T04:28:18.855Z,1019.522
2023-04-08T04:28:49.334Z,1019.532
2023-04-08T04:29:18.852Z,1019.53
2023-04-08T04:29:48.853Z,1019.532
2023-04-08T04:30:18.854Z,1019.541
2023-04-08T04:30:48.873Z,1019.544
2023-04-08T04:31:18.896Z,1019.547
2023-04-08T04:31:48.844Z,1019.56
2023-04-08T04:32:18.850Z,1019.563
2023-04-08T04:32:48.885Z,1019.58
2023-04-08T04:33:18.850Z,1019.578
2023-04-08T04:33:48.868Z,1019.584
2023-04-08T04:34:18.850Z,1019.585
2023-04-08T04:34:48.854Z,1019.587
2023-04-08T04:35:18.897Z,1019.566
2023-04-08T04:35:48.939Z,1019.544
2023-04-08T04:36:18.847Z,1019.517
2023-04-08T04:36:48.850Z,1019.494
2023-04-08T04:37:18.853Z,1019.471
2023-04-08T04:37:48.847Z,1019.456
2023-04-08T04:38:18.845Z,1019.427
2023-04-08T04:38:50.422Z,1019.392
2023-04-08T04:39:18.861Z,1019.388
2023-04-08T04:39:48.867Z,1019.384
2023-04-08T04:40:18.856Z,1019.376
2023-04-08T04:40:48.844Z,1019.383
2023-04-08T04:41:18.850Z,1019.406
2023-04-08T04:41:48.846Z,1019.415
2023-04-08T04:42:18.863Z,1019.434
2023-04-08T04:42:48.851Z,1019.455
2023-04-08T04:43:18.844Z,1019.484
2023-04-08T04:43:48.850Z,1019.481
2023-04-08T04:44:18.848Z,1019.482
2023-04-08T04:44:48.860Z,1019.495
2023-04-08T04:45:18.845Z,1019.497
2023-04-08T04:45:48.853Z,1019.479
2023-04-08T04:46:18.945Z,1019.484
2023-04-08T04:46:48.866Z,1019.488
2023-04-08T04:47:18.850Z,1019.494
2023-04-08T04:47:48.888Z,1019.494
2023-04-08T04:48:18.848Z,1019.512
2023-04-08T04:48:49.191Z,1019.504
2023-04-08T04:49:18.856Z,1019.506
2023-04-08T04:49:48.853Z,1019.499
2023-04-08T04:50:18.859Z,1019.494
2023-04-08T04:50:48.860Z,1019.475
2023-04-08T04:51:18.866Z,1019.462
2023-04-08T04:51:48.850Z,1019.443
2023-04-08T04:52:18.858Z,1019.436
2023-04-08T04:52:48.848Z,1019.449
2023-04-08T04:53:18.846Z,1019.446
2023-04-08T04:53:48.852Z,1019.441
2023-04-08T04:54:18.856Z,1019.435
2023-04-08T04:54:48.849Z,1019.434
2023-04-08T04:55:18.857Z,1019.441
2023-04-08T04:55:48.854Z,1019.433
2023-04-08T04:56:18.849Z,1019.431
2023-04-08T04:56:48.850Z,1019.42
2023-04-08T04:57:18.848Z,1019.427
2023-04-08T04:57:48.854Z,1019.457
2023-04-08T04:58:18.850Z,1019.485
2023-04-08T04:58:49.103Z,1019.506
2023-04-08T04:59:18.857Z,1019.511
2023-04-08T04:59:48.850Z,1019.51
2023-04-08T05:00:18.854Z,1019.533
2023-04-08T05:00:48.853Z,1019.545
2023-04-08T05:01:18.896Z,1019.547
2023-04-08T05:01:48.980Z,1019.527
2023-04-08T05:02:18.960Z,1019.505
2023-04-08T05:02:49.067Z,1019.492
2023-04-08T05:03:18.983Z,1019.479
2023-04-08T05:03:48.896Z,1019.473
2023-04-08T05:04:18.863Z,1019.465
2023-04-08T05:04:48.877Z,1019.446
2023-04-08T05:05:18.902Z,1019.428
2023-04-08T05:05:48.872Z,1019.416
2023-04-08T05:06:18.872Z,1019.433
2023-04-08T05:06:48.865Z,1019.433
2023-04-08T05:07:18.875Z,1019.437
2023-04-08T05:07:48.861Z,1019.429
2023-04-08T05:08:18.872Z,1019.428
2023-04-08T05:08:49.047Z,1019.426
2023-04-08T05:09:18.872Z,1019.429
2023-04-08T05:09:48.863Z,1019.423
2023-04-08T05:10:18.866Z,1019.414
2023-04-08T05:10:48.861Z,1019.402
2023-04-08T05:11:18.858Z,1019.391
2023-04-08T05:11:48.866Z,1019.398
2023-04-08T05:12:18.864Z,1019.402
2023-04-08T05:12:48.867Z,1019.409
2023-04-08T05:13:18.859Z,1019.432
2023-04-08T05:13:48.876Z,1019.443
2023-04-08T05:14:18.869Z,1019.473
2023-04-08T05:14:48.865Z,1019.495
2023-04-08T05:15:18.889Z,1019.5
2023-04-08T05:15:48.934Z,1019.501
2023-04-08T05:16:18.919Z,1019.508
2023-04-08T05:16:48.877Z,1019.504
2023-04-08T05:17:18.870Z,1019.5
2023-04-08T05:17:48.899Z,1019.503
2023-04-08T05:18:18.873Z,1019.48
2023-04-08T05:18:49.091Z,1019.48
2023-04-08T05:19:18.877Z,1019.468
2023-04-08T05:19:48.872Z,1019.47
2023-04-08T05:20:18.880Z,1019.448
2023-04-08T05:20:48.873Z,1019.437
2023-04-08T05:21:18.872Z,1019.438
2023-04-08T05:21:48.881Z,1019.43
2023-04-08T05:22:18.868Z,1019.453
2023-04-08T05:22:48.872Z,1019.468
2023-04-08T05:23:18.867Z,1019.489
2023-04-08T05:23:48.876Z,1019.48
2023-04-08T05:24:18.871Z,1019.491
2023-04-08T05:24:48.890Z,1019.496
2023-04-08T05:25:18.892Z,1019.506
2023-04-08T05:25:48.893Z,1019.507
2023-04-08T05:26:20.338Z,1019.51
2023-04-08T05:26:48.874Z,1019.516
2023-04-08T05:27:18.876Z,1019.522
2023-04-08T05:27:48.876Z,1019.504
2023-04-08T05:28:18.874Z,1019.494
2023-04-08T05:28:49.155Z,1019.492
2023-04-08T05:29:18.872Z,1019.482
2023-04-08T05:29:48.879Z,1019.495
2023-04-08T05:30:18.875Z,1019.493
2023-04-08T05:30:48.869Z,1019.487
2023-04-08T05:31:18.910Z,1019.479
2023-04-08T05:31:48.981Z,1019.473
2023-04-08T05:32:18.874Z,1019.463
2023-04-08T05:32:48.918Z,1019.484
2023-04-08T05:33:18.880Z,1019.502
2023-04-08T05:33:48.875Z,1019.496
2023-04-08T05:34:18.876Z,1019.495
2023-04-08T05:34:48.900Z,1019.494
2023-04-08T05:35:18.903Z,1019.499
2023-04-08T05:35:48.910Z,1019.498
2023-04-08T05:36:18.887Z,1019.491
2023-04-08T05:36:48.891Z,1019.486
2023-04-08T05:37:18.880Z,1019.482
2023-04-08T05:37:48.873Z,1019.489
2023-04-08T05:38:18.895Z,1019.49
2023-04-08T05:38:49.167Z,1019.486
2023-04-08T05:39:18.876Z,1019.475
2023-04-08T05:39:48.882Z,1019.47
2023-04-08T05:40:18.882Z,1019.482
2023-04-08T05:40:48.875Z,1019.491
2023-04-08T05:41:18.904Z,1019.485
2023-04-08T05:41:48.881Z,1019.475
2023-04-08T05:42:18.890Z,1019.477
2023-04-08T05:42:48.882Z,1019.47
2023-04-08T05:43:18.878Z,1019.48
2023-04-08T05:43:48.901Z,1019.491
2023-04-08T05:44:18.884Z,1019.52
2023-04-08T05:44:48.880Z,1019.538
2023-04-08T05:45:18.878Z,1019.549
2023-04-08T05:45:48.877Z,1019.562
2023-04-08T05:46:18.918Z,1019.595
2023-04-08T05:46:48.901Z,1019.603
2023-04-08T05:47:18.879Z,1019.618
2023-04-08T05:47:48.930Z,1019.619
2023-04-08T05:48:18.882Z,1019.621
2023-04-08T05:48:49.253Z,1019.625
2023-04-08T05:49:18.898Z,1019.622
2023-04-08T05:49:50.213Z,1019.613
2023-04-08T05:50:18.885Z,1019.612
2023-04-08T05:50:48.887Z,1019.613
2023-04-08T05:51:18.900Z,1019.611
2023-04-08T05:51:48.892Z,1019.599
2023-04-08T05:52:18.884Z,1019.579
2023-04-08T05:52:48.887Z,1019.555
2023-04-08T05:53:18.884Z,1019.542
2023-04-08T05:53:48.892Z,1019.535